sensor_id;sensor_type;location;lat;lon;timestamp;pressure;altitude;pressure_sealevel;temperature;humidity
55604;BME280;41468;48.838;9.330;2023-03-21T00:00:57;98569.38;;;9.97;89.75
55604;BME280;41468;48.838;9.330;2023-03-21T00:03:24;98568.66;;;10.00;89.85
55604;BME280;41468;48.838;9.330;2023-03-21T00:05:52;98561.97;;;9.98;90.31
55604;BME280;41468;48.838;9.330;2023-03-21T00:08:20;98567.94;;;10.03;90.36
55604;BME280;41468;48.838;9.330;2023-03-21T00:11:03;98563.66;;;10.02;90.36
55604;BME280;41468;48.838;9.330;2023-03-21T00:13:31;98560.09;;;10.02;90.85
55604;BME280;41468;48.838;9.330;2023-03-21T00:18:49;98561.78;;;10.06;91.16
55604;BME280;41468;48.838;9.330;2023-03-21T00:21:20;98559.88;;;9.91;88.63
55604;BME280;41468;48.838;9.330;2023-03-21T00:24:06;98559.31;;;10.01;86.67
55604;BME280;41468;48.838;9.330;2023-03-21T00:26:34;98560.91;;;10.02;87.94
55604;BME280;41468;48.838;9.330;2023-03-21T00:29:01;98555.38;;;9.99;89.49
55604;BME280;41468;48.838;9.330;2023-03-21T00:31:28;98553.88;;;10.01;88.87
55604;BME280;41468;48.838;9.330;2023-03-21T00:33:54;98551.81;;;10.14;85.07
55604;BME280;41468;48.838;9.330;2023-03-21T00:36:21;98545.91;;;10.12;84.39
55604;BME280;41468;48.838;9.330;2023-03-21T00:38:51;98542.50;;;9.99;84.91
55604;BME280;41468;48.838;9.330;2023-03-21T00:41:17;98536.56;;;9.93;84.94
55604;BME280;41468;48.838;9.330;2023-03-21T00:44:04;98540.44;;;9.92;85.17
55604;BME280;41468;48.838;9.330;2023-03-21T00:46:31;98537.72;;;9.92;84.84
55604;BME280;41468;48.838;9.330;2023-03-21T00:49:10;98537.28;;;9.90;86.88
55604;BME280;41468;48.838;9.330;2023-03-21T00:51:37;98527.38;;;9.82;89.25
55604;BME280;41468;48.838;9.330;2023-03-21T00:54:03;98527.16;;;9.91;89.66
55604;BME280;41468;48.838;9.330;2023-03-21T00:56:31;98522.72;;;10.02;89.37
55604;BME280;41468;48.838;9.330;2023-03-21T00:58:57;98517.84;;;9.92;89.96
55604;BME280;41468;48.838;9.330;2023-03-21T01:01:24;98519.78;;;9.91;90.05
55604;BME280;41468;48.838;9.330;2023-03-21T01:03:58;98516.69;;;9.93;89.90
55604;BME280;41468;48.838;9.330;2023-03-21T01:06:39;98514.81;;;9.97;87.95
55604;BME280;41468;48.838;9.330;2023-03-21T01:09:11;98516.69;;;9.93;86.59
55604;BME280;41468;48.838;9.330;2023-03-21T01:11:38;98510.94;;;9.98;85.83
55604;BME280;41468;48.838;9.330;2023-03-21T01:14:05;98520.34;;;10.01;87.43
55604;BME280;41468;48.838;9.330;2023-03-21T01:16:48;98518.50;;;10.05;85.77
55604;BME280;41468;48.838;9.330;2023-03-21T01:19:17;98511.88;;;10.06;84.76
55604;BME280;41468;48.838;9.330;2023-03-21T01:21:48;98513.94;;;9.93;85.25
55604;BME280;41468;48.838;9.330;2023-03-21T01:24:15;98515.22;;;9.99;85.00
55604;BME280;41468;48.838;9.330;2023-03-21T01:26:46;98512.31;;;10.08;84.59
55604;BME280;41468;48.838;9.330;2023-03-21T01:29:13;98508.56;;;9.96;85.47
55604;BME280;41468;48.838;9.330;2023-03-21T01:31:40;98514.81;;;9.97;85.21
55604;BME280;41468;48.838;9.330;2023-03-21T01:34:06;98502.53;;;9.87;85.82
55604;BME280;41468;48.838;9.330;2023-03-21T01:36:33;98513.38;;;9.84;85.86
55604;BME280;41468;48.838;9.330;2023-03-21T01:39:05;98512.44;;;9.76;85.98
55604;BME280;41468;48.838;9.330;2023-03-21T01:41:37;98506.19;;;9.76;86.77
55604;BME280;41468;48.838;9.330;2023-03-21T01:44:16;98504.25;;;9.76;86.16
55604;BME280;41468;48.838;9.330;2023-03-21T01:46:44;98501.88;;;9.74;86.08
55604;BME280;41468;48.838;9.330;2023-03-21T01:49:35;98498.00;;;9.76;86.22
55604;BME280;41468;48.838;9.330;2023-03-21T01:52:09;98496.97;;;9.64;86.58
55604;BME280;41468;48.838;9.330;2023-03-21T01:54:50;98492.13;;;9.73;86.66
55604;BME280;41468;48.838;9.330;2023-03-21T01:57:26;98498.00;;;9.76;86.75
55604;BME280;41468;48.838;9.330;2023-03-21T02:00:10;98494.78;;;9.70;87.14
55604;BME280;41468;48.838;9.330;2023-03-21T02:02:42;98494.63;;;9.63;87.22
55604;BME280;41468;48.838;9.330;2023-03-21T02:05:22;98482.22;;;9.65;86.98
55604;BME280;41468;48.838;9.330;2023-03-21T02:07:51;98483.34;;;9.64;86.52
55604;BME280;41468;48.838;9.330;2023-03-21T02:10:18;98481.03;;;9.47;88.04
55604;BME280;41468;48.838;9.330;2023-03-21T02:12:45;98473.88;;;9.58;87.88
55604;BME280;41468;48.838;9.330;2023-03-21T02:15:13;98469.66;;;9.61;87.15
55604;BME280;41468;48.838;9.330;2023-03-21T02:18:07;98478.19;;;9.59;87.27
55604;BME280;41468;48.838;9.330;2023-03-21T02:26:02;98479.75;;;9.60;87.31
55604;BME280;41468;48.838;9.330;2023-03-21T02:28:55;98470.44;;;9.61;87.22
55604;BME280;41468;48.838;9.330;2023-03-21T02:31:45;98475.81;;;9.58;87.43
55604;BME280;41468;48.838;9.330;2023-03-21T02:37:31;98467.28;;;9.59;86.92
55604;BME280;41468;48.838;9.330;2023-03-21T02:40:21;98470.34;;;9.58;86.83
55604;BME280;41468;48.838;9.330;2023-03-21T02:43:04;98463.41;;;9.60;86.81
55604;BME280;41468;48.838;9.330;2023-03-21T02:48:48;98470.88;;;9.63;86.52
55604;BME280;41468;48.838;9.330;2023-03-21T02:51:20;98472.81;;;9.63;86.86
55604;BME280;41468;48.838;9.330;2023-03-21T02:53:55;98471.16;;;9.58;87.23
55604;BME280;41468;48.838;9.330;2023-03-21T02:56:45;98470.19;;;9.50;87.68
55604;BME280;41468;48.838;9.330;2023-03-21T02:59:13;98464.75;;;9.50;87.96
55604;BME280;41468;48.838;9.330;2023-03-21T03:01:41;98459.94;;;9.44;87.87
55604;BME280;41468;48.838;9.330;2023-03-21T03:04:27;98457.72;;;9.49;87.39
55604;BME280;41468;48.838;9.330;2023-03-21T03:07:07;98453.78;;;9.47;87.54
55604;BME280;41468;48.838;9.330;2023-03-21T03:09:58;98449.81;;;9.44;87.78
55604;BME280;41468;48.838;9.330;2023-03-21T03:12:41;98455.06;;;9.53;87.33
55604;BME280;41468;48.838;9.330;2023-03-21T03:15:24;98453.56;;;9.56;86.91
55604;BME280;41468;48.838;9.330;2023-03-21T03:17:59;98452.78;;;9.55;86.55
55604;BME280;41468;48.838;9.330;2023-03-21T03:26:03;98456.84;;;9.45;87.66
55604;BME280;41468;48.838;9.330;2023-03-21T03:28:38;98452.22;;;9.46;88.06
55604;BME280;41468;48.838;9.330;2023-03-21T03:31:06;98457.88;;;9.57;87.28
55604;BME280;41468;48.838;9.330;2023-03-21T03:33:38;98452.44;;;9.57;87.82
55604;BME280;41468;48.838;9.330;2023-03-21T03:36:09;98452.47;;;9.41;88.18
55604;BME280;41468;48.838;9.330;2023-03-21T03:38:50;98453.94;;;9.54;87.81
55604;BME280;41468;48.838;9.330;2023-03-21T03:41:22;98454.56;;;9.47;88.05
55604;BME280;41468;48.838;9.330;2023-03-21T03:43:54;98449.47;;;9.46;88.00
55604;BME280;41468;48.838;9.330;2023-03-21T03:46:27;98446.16;;;9.37;88.28
55604;BME280;41468;48.838;9.330;2023-03-21T03:49:18;98445.56;;;9.27;88.80
55604;BME280;41468;48.838;9.330;2023-03-21T03:52:11;98438.47;;;9.07;90.28
55604;BME280;41468;48.838;9.330;2023-03-21T03:54:42;98441.00;;;9.16;90.31
55604;BME280;41468;48.838;9.330;2023-03-21T03:57:10;98428.53;;;9.15;90.16
55604;BME280;41468;48.838;9.330;2023-03-21T03:59:41;98428.75;;;9.06;90.64
55604;BME280;41468;48.838;9.330;2023-03-21T04:02:08;98423.84;;;8.96;90.95
55604;BME280;41468;48.838;9.330;2023-03-21T04:04:35;98429.53;;;9.06;90.66
55604;BME280;41468;48.838;9.330;2023-03-21T04:07:02;98433.47;;;9.09;90.48
55604;BME280;41468;48.838;9.330;2023-03-21T04:09:29;98438.56;;;9.11;90.52
55604;BME280;41468;48.838;9.330;2023-03-21T04:12:09;98430.56;;;9.18;90.03
55604;BME280;41468;48.838;9.330;2023-03-21T04:14:35;98431.56;;;9.29;89.28
55604;BME280;41468;48.838;9.330;2023-03-21T04:17:10;98428.97;;;9.17;88.74
55604;BME280;41468;48.838;9.330;2023-03-21T04:19:36;98434.06;;;9.18;88.90
55604;BME280;41468;48.838;9.330;2023-03-21T04:22:03;98426.69;;;9.19;89.83
55604;BME280;41468;48.838;9.330;2023-03-21T04:24:30;98428.03;;;9.09;91.74
55604;BME280;41468;48.838;9.330;2023-03-21T04:26:59;98432.25;;;9.06;92.32
55604;BME280;41468;48.838;9.330;2023-03-21T04:29:26;98429.78;;;9.17;92.35
55604;BME280;41468;48.838;9.330;2023-03-21T04:31:55;98426.34;;;9.20;91.75
55604;BME280;41468;48.838;9.330;2023-03-21T04:34:22;98426.84;;;9.26;92.09
55604;BME280;41468;48.838;9.330;2023-03-21T04:36:49;98423.53;;;9.17;92.40
55604;BME280;41468;48.838;9.330;2023-03-21T04:39:16;98424.16;;;9.10;93.06
55604;BME280;41468;48.838;9.330;2023-03-21T04:41:44;98424.41;;;9.05;93.40
55604;BME280;41468;48.838;9.330;2023-03-21T04:44:13;98421.69;;;9.05;93.32
55604;BME280;41468;48.838;9.330;2023-03-21T04:46:41;98423.63;;;9.04;93.52
55604;BME280;41468;48.838;9.330;2023-03-21T04:49:09;98425.75;;;9.11;93.38
55604;BME280;41468;48.838;9.330;2023-03-21T04:51:47;98421.28;;;9.03;92.17
55604;BME280;41468;48.838;9.330;2023-03-21T04:54:13;98420.13;;;9.04;91.66
55604;BME280;41468;48.838;9.330;2023-03-21T04:56:43;98419.88;;;9.09;91.38
55604;BME280;41468;48.838;9.330;2023-03-21T04:59:16;98418.00;;;9.13;90.82
55604;BME280;41468;48.838;9.330;2023-03-21T05:01:43;98418.97;;;9.05;90.93
55604;BME280;41468;48.838;9.330;2023-03-21T05:04:12;98419.69;;;9.02;91.85
55604;BME280;41468;48.838;9.330;2023-03-21T05:06:39;98421.56;;;8.98;91.41
55604;BME280;41468;48.838;9.330;2023-03-21T05:09:08;98415.81;;;9.19;90.59
55604;BME280;41468;48.838;9.330;2023-03-21T05:11:39;98412.44;;;9.25;89.70
55604;BME280;41468;48.838;9.330;2023-03-21T05:14:09;98418.81;;;9.14;90.13
55604;BME280;41468;48.838;9.330;2023-03-21T05:16:39;98423.38;;;9.10;90.55
55604;BME280;41468;48.838;9.330;2023-03-21T05:19:14;98423.88;;;9.15;90.04
55604;BME280;41468;48.838;9.330;2023-03-21T05:21:42;98424.50;;;9.24;89.92
55604;BME280;41468;48.838;9.330;2023-03-21T05:24:21;98425.28;;;9.25;89.31
55604;BME280;41468;48.838;9.330;2023-03-21T05:26:48;98425.56;;;9.20;89.55
55604;BME280;41468;48.838;9.330;2023-03-21T05:29:17;98418.72;;;9.10;90.23
55604;BME280;41468;48.838;9.330;2023-03-21T05:31:45;98416.63;;;9.03;90.56
55604;BME280;41468;48.838;9.330;2023-03-21T05:34:13;98428.31;;;9.04;91.14
55604;BME280;41468;48.838;9.330;2023-03-21T05:36:47;98428.94;;;8.97;91.56
55604;BME280;41468;48.838;9.330;2023-03-21T05:39:14;98431.31;;;8.83;91.98
55604;BME280;41468;48.838;9.330;2023-03-21T05:41:52;98439.13;;;8.84;92.67
55604;BME280;41468;48.838;9.330;2023-03-21T05:44:18;98436.41;;;8.84;92.55
55604;BME280;41468;48.838;9.330;2023-03-21T05:46:45;98439.13;;;8.84;92.62
55604;BME280;41468;48.838;9.330;2023-03-21T05:49:12;98438.88;;;8.90;92.18
55604;BME280;41468;48.838;9.330;2023-03-21T05:51:39;98443.63;;;8.93;91.98
55604;BME280;41468;48.838;9.330;2023-03-21T05:54:05;98441.59;;;8.90;92.08
55604;BME280;41468;48.838;9.330;2023-03-21T05:56:32;98435.19;;;8.98;90.92
55604;BME280;41468;48.838;9.330;2023-03-21T05:58:59;98436.31;;;8.97;90.64
55604;BME280;41468;48.838;9.330;2023-03-21T06:01:26;98437.25;;;9.04;89.84
55604;BME280;41468;48.838;9.330;2023-03-21T06:03:52;98435.06;;;9.10;89.72
55604;BME280;41468;48.838;9.330;2023-03-21T06:06:19;98441.81;;;9.16;89.75
55604;BME280;41468;48.838;9.330;2023-03-21T06:08:46;98438.66;;;9.14;89.72
55604;BME280;41468;48.838;9.330;2023-03-21T06:11:22;98437.16;;;9.17;89.56
55604;BME280;41468;48.838;9.330;2023-03-21T06:13:49;98441.97;;;9.23;89.14
55604;BME280;41468;48.838;9.330;2023-03-21T06:16:16;98442.41;;;9.25;88.46
55604;BME280;41468;48.838;9.330;2023-03-21T06:18:47;98437.84;;;9.29;87.97
55604;BME280;41468;48.838;9.330;2023-03-21T06:21:14;98443.28;;;9.29;88.73
55604;BME280;41468;48.838;9.330;2023-03-21T06:23:41;98436.41;;;9.36;88.25
55604;BME280;41468;48.838;9.330;2023-03-21T06:26:08;98439.41;;;9.31;87.99
55604;BME280;41468;48.838;9.330;2023-03-21T06:28:34;98436.41;;;9.36;87.92
55604;BME280;41468;48.838;9.330;2023-03-21T06:31:01;98437.19;;;9.36;87.68
55604;BME280;41468;48.838;9.330;2023-03-21T06:33:28;98439.56;;;9.38;87.80
55604;BME280;41468;48.838;9.330;2023-03-21T06:35:56;98433.69;;;9.36;87.94
55604;BME280;41468;48.838;9.330;2023-03-21T06:38:33;98440.66;;;9.52;87.89
55604;BME280;41468;48.838;9.330;2023-03-21T06:41:04;98448.50;;;9.54;87.60
55604;BME280;41468;48.838;9.330;2023-03-21T06:43:31;98441.38;;;9.49;87.99
55604;BME280;41468;48.838;9.330;2023-03-21T06:45:57;98446.34;;;9.63;87.86
55604;BME280;41468;48.838;9.330;2023-03-21T06:48:24;98442.44;;;9.64;86.79
55604;BME280;41468;48.838;9.330;2023-03-21T06:50:51;98439.22;;;9.59;87.73
55604;BME280;41468;48.838;9.330;2023-03-21T06:53:20;98437.16;;;9.71;86.66
55604;BME280;41468;48.838;9.330;2023-03-21T06:55:50;98447.56;;;9.66;86.82
55604;BME280;41468;48.838;9.330;2023-03-21T06:58:22;98443.31;;;9.68;86.42
55604;BME280;41468;48.838;9.330;2023-03-21T07:00:49;98439.44;;;9.69;85.86
55604;BME280;41468;48.838;9.330;2023-03-21T07:03:15;98439.59;;;9.77;85.29
55604;BME280;41468;48.838;9.330;2023-03-21T07:05:42;98442.47;;;9.84;85.35
55604;BME280;41468;48.838;9.330;2023-03-21T07:08:09;98442.19;;;9.89;84.37
55604;BME280;41468;48.838;9.330;2023-03-21T07:10:42;98439.53;;;9.92;84.33
55604;BME280;41468;48.838;9.330;2023-03-21T07:13:20;98440.00;;;9.98;83.25
55604;BME280;41468;48.838;9.330;2023-03-21T07:15:46;98437.94;;;10.11;82.08
55604;BME280;41468;48.838;9.330;2023-03-21T07:18:13;98436.84;;;10.15;81.92
55604;BME280;41468;48.838;9.330;2023-03-21T07:20:40;98440.41;;;10.20;82.06
55604;BME280;41468;48.838;9.330;2023-03-21T07:23:11;98433.41;;;10.18;82.01
55604;BME280;41468;48.838;9.330;2023-03-21T07:25:38;98431.94;;;10.25;82.32
55604;BME280;41468;48.838;9.330;2023-03-21T07:28:09;98426.66;;;10.32;81.21
55604;BME280;41468;48.838;9.330;2023-03-21T07:30:36;98430.06;;;10.48;80.90
55604;BME280;41468;48.838;9.330;2023-03-21T07:33:03;98433.78;;;10.86;78.48
55604;BME280;41468;48.838;9.330;2023-03-21T07:35:30;98423.25;;;11.11;78.77
55604;BME280;41468;48.838;9.330;2023-03-21T07:37:56;98433.72;;;11.36;76.33
55604;BME280;41468;48.838;9.330;2023-03-21T07:40:23;98427.91;;;11.37;74.15
55604;BME280;41468;48.838;9.330;2023-03-21T07:42:50;98422.41;;;11.64;74.70
55604;BME280;41468;48.838;9.330;2023-03-21T07:45:28;98429.00;;;11.63;73.38
55604;BME280;41468;48.838;9.330;2023-03-21T07:47:55;98425.66;;;11.77;72.92
55604;BME280;41468;48.838;9.330;2023-03-21T07:50:26;98433.94;;;12.14;70.56
55604;BME280;41468;48.838;9.330;2023-03-21T07:52:53;98438.41;;;12.29;68.70
55604;BME280;41468;48.838;9.330;2023-03-21T07:55:20;98435.59;;;12.22;68.90
55604;BME280;41468;48.838;9.330;2023-03-21T07:57:49;98436.34;;;12.19;70.54
55604;BME280;41468;48.838;9.330;2023-03-21T08:00:18;98442.69;;;12.30;68.87
55604;BME280;41468;48.838;9.330;2023-03-21T08:02:52;98432.78;;;12.15;68.19
55604;BME280;41468;48.838;9.330;2023-03-21T08:05:26;98435.25;;;12.27;69.21
55604;BME280;41468;48.838;9.330;2023-03-21T08:07:53;98427.88;;;12.31;67.65
55604;BME280;41468;48.838;9.330;2023-03-21T08:10:20;98435.84;;;12.47;68.13
55604;BME280;41468;48.838;9.330;2023-03-21T08:12:47;98434.44;;;12.64;66.49
55604;BME280;41468;48.838;9.330;2023-03-21T08:15:14;98440.00;;;12.75;68.16
55604;BME280;41468;48.838;9.330;2023-03-21T08:17:41;98439.38;;;12.48;67.13
55604;BME280;41468;48.838;9.330;2023-03-21T08:20:16;98437.09;;;12.57;67.03
55604;BME280;41468;48.838;9.330;2023-03-21T08:22:49;98433.22;;;12.58;66.52
55604;BME280;41468;48.838;9.330;2023-03-21T08:25:17;98429.88;;;12.38;66.13
55604;BME280;41468;48.838;9.330;2023-03-21T08:27:45;98434.16;;;12.35;67.49
55604;BME280;41468;48.838;9.330;2023-03-21T08:30:14;98425.84;;;12.66;66.81
55604;BME280;41468;48.838;9.330;2023-03-21T08:32:58;98424.63;;;13.15;63.90
55604;BME280;41468;48.838;9.330;2023-03-21T08:35:27;98420.88;;;13.37;63.62
55604;BME280;41468;48.838;9.330;2023-03-21T08:37:54;98415.44;;;13.44;63.51
55604;BME280;41468;48.838;9.330;2023-03-21T08:40:32;98415.22;;;13.82;62.55
55604;BME280;41468;48.838;9.330;2023-03-21T08:42:59;98412.50;;;13.96;60.93
55604;BME280;41468;48.838;9.330;2023-03-21T08:45:25;98410.59;;;14.14;59.61
55604;BME280;41468;48.838;9.330;2023-03-21T08:47:53;98414.97;;;14.33;60.31
55604;BME280;41468;48.838;9.330;2023-03-21T08:50:22;98412.22;;;14.41;59.69
55604;BME280;41468;48.838;9.330;2023-03-21T08:52:49;98405.19;;;14.72;59.22
55604;BME280;41468;48.838;9.330;2023-03-21T08:55:17;98407.56;;;14.70;60.13
55604;BME280;41468;48.838;9.330;2023-03-21T08:57:48;98400.50;;;14.76;58.84
55604;BME280;41468;48.838;9.330;2023-03-21T09:00:16;98406.38;;;14.99;57.17
55604;BME280;41468;48.838;9.330;2023-03-21T09:02:45;98405.59;;;15.02;56.53
55604;BME280;41468;48.838;9.330;2023-03-21T09:05:12;98393.75;;;15.20;57.06
55604;BME280;41468;48.838;9.330;2023-03-21T09:07:40;98402.03;;;15.06;56.80
55604;BME280;41468;48.838;9.330;2023-03-21T09:10:19;98387.50;;;15.16;56.37
55604;BME280;41468;48.838;9.330;2023-03-21T09:12:52;98397.25;;;15.31;54.92
55604;BME280;41468;48.838;9.330;2023-03-21T09:15:21;98387.78;;;15.46;55.92
55604;BME280;41468;48.838;9.330;2023-03-21T09:17:49;98391.28;;;15.58;55.32
55604;BME280;41468;48.838;9.330;2023-03-21T09:20:24;98400.84;;;15.17;55.67
55604;BME280;41468;48.838;9.330;2023-03-21T09:22:58;98400.88;;;15.10;54.05
55604;BME280;41468;48.838;9.330;2023-03-21T09:25:27;98401.59;;;15.32;53.57
55604;BME280;41468;48.838;9.330;2023-03-21T09:28:00;98408.25;;;15.45;53.21
55604;BME280;41468;48.838;9.330;2023-03-21T09:30:31;98400.69;;;15.71;54.25
55604;BME280;41468;48.838;9.330;2023-03-21T09:33:02;98397.47;;;15.94;54.11
55604;BME280;41468;48.838;9.330;2023-03-21T09:35:31;98399.00;;;16.02;55.18
55604;BME280;41468;48.838;9.330;2023-03-21T09:37:58;98390.19;;;16.25;52.60
55604;BME280;41468;48.838;9.330;2023-03-21T09:47:21;98387.28;;;16.47;50.84
55604;BME280;41468;48.838;9.330;2023-03-21T09:50:06;98386.16;;;16.41;51.07
55604;BME280;41468;48.838;9.330;2023-03-21T09:55:19;98382.84;;;16.04;49.64
55604;BME280;41468;48.838;9.330;2023-03-21T09:57:55;98392.44;;;16.45;50.02
55604;BME280;41468;48.838;9.330;2023-03-21T10:00:32;98379.00;;;16.47;49.56
55604;BME280;41468;48.838;9.330;2023-03-21T10:03:03;98378.63;;;16.48;49.83
55604;BME280;41468;48.838;9.330;2023-03-21T10:05:32;98368.72;;;16.58;49.88
55604;BME280;41468;48.838;9.330;2023-03-21T10:08:17;98377.16;;;16.85;47.71
55604;BME280;41468;48.838;9.330;2023-03-21T10:10:52;98366.88;;;16.89;48.16
55604;BME280;41468;48.838;9.330;2023-03-21T10:13:25;98366.13;;;16.85;47.27
55604;BME280;41468;48.838;9.330;2023-03-21T10:15:56;98362.66;;;16.77;47.27
55604;BME280;41468;48.838;9.330;2023-03-21T10:18:25;98362.22;;;16.83;45.49
55604;BME280;41468;48.838;9.330;2023-03-21T10:20:54;98357.03;;;16.36;44.69
55604;BME280;41468;48.838;9.330;2023-03-21T10:23:25;98351.66;;;16.22;46.60
55604;BME280;41468;48.838;9.330;2023-03-21T10:25:55;98350.19;;;16.03;45.32
55604;BME280;41468;48.838;9.330;2023-03-21T10:28:26;98351.50;;;15.84;46.05
55604;BME280;41468;48.838;9.330;2023-03-21T10:31:00;98338.38;;;16.06;48.15
55604;BME280;41468;48.838;9.330;2023-03-21T10:33:37;98336.84;;;16.01;48.34
55604;BME280;41468;48.838;9.330;2023-03-21T10:36:10;98333.63;;;16.06;48.68
55604;BME280;41468;48.838;9.330;2023-03-21T10:38:45;98329.06;;;15.85;47.77
55604;BME280;41468;48.838;9.330;2023-03-21T10:41:12;98323.56;;;15.85;46.55
55604;BME280;41468;48.838;9.330;2023-03-21T10:43:40;98329.06;;;15.85;47.05
55604;BME280;41468;48.838;9.330;2023-03-21T10:46:16;98337.56;;;16.12;47.21
55604;BME280;41468;48.838;9.330;2023-03-21T10:48:43;98337.63;;;16.54;49.98
55604;BME280;41468;48.838;9.330;2023-03-21T10:51:30;98328.09;;;17.07;48.27
55604;BME280;41468;48.838;9.330;2023-03-21T10:54:02;98324.56;;;17.41;45.84
55604;BME280;41468;48.838;9.330;2023-03-21T10:56:35;98329.31;;;17.67;44.22
55604;BME280;41468;48.838;9.330;2023-03-21T10:59:03;98332.31;;;17.84;44.93
55604;BME280;41468;48.838;9.330;2023-03-21T11:01:37;98327.75;;;17.97;44.53
55604;BME280;41468;48.838;9.330;2023-03-21T11:04:15;98331.75;;;17.96;44.49
55604;BME280;41468;48.838;9.330;2023-03-21T11:06:55;98332.41;;;18.04;44.71
55604;BME280;41468;48.838;9.330;2023-03-21T11:09:25;98327.75;;;17.97;44.11
55604;BME280;41468;48.838;9.330;2023-03-21T11:12:07;98325.53;;;17.58;44.80
55604;BME280;41468;48.838;9.330;2023-03-21T11:14:43;98326.72;;;17.57;44.20
55604;BME280;41468;48.838;9.330;2023-03-21T11:19:47;98320.53;;;17.80;43.88
55604;BME280;41468;48.838;9.330;2023-03-21T11:22:36;98321.16;;;17.91;45.61
55604;BME280;41468;48.838;9.330;2023-03-21T11:25:06;98306.97;;;17.89;46.38
55604;BME280;41468;48.838;9.330;2023-03-21T11:27:34;98309.06;;;17.78;45.76
55604;BME280;41468;48.838;9.330;2023-03-21T11:30:03;98310.75;;;17.72;46.89
55604;BME280;41468;48.838;9.330;2023-03-21T11:32:35;98313.13;;;17.70;46.13
55604;BME280;41468;48.838;9.330;2023-03-21T11:35:13;98303.91;;;17.53;45.04
55604;BME280;41468;48.838;9.330;2023-03-21T11:37:45;98303.16;;;17.49;45.83
55604;BME280;41468;48.838;9.330;2023-03-21T11:43:01;98293.53;;;17.30;45.68
55604;BME280;41468;48.838;9.330;2023-03-21T11:45:33;98291.81;;;17.09;46.14
55604;BME280;41468;48.838;9.330;2023-03-21T11:48:10;98285.44;;;17.15;46.37
55604;BME280;41468;48.838;9.330;2023-03-21T11:50:44;98289.47;;;17.07;46.70
55604;BME280;41468;48.838;9.330;2023-03-21T11:56:35;98280.41;;;16.65;46.71
55604;BME280;41468;48.838;9.330;2023-03-21T12:02:02;98274.91;;;16.65;47.42
55604;BME280;41468;48.838;9.330;2023-03-21T12:04:46;98262.81;;;16.55;47.84
55604;BME280;41468;48.838;9.330;2023-03-21T12:10:07;98256.06;;;16.60;51.11
55604;BME280;41468;48.838;9.330;2023-03-21T12:12:48;98254.88;;;16.61;51.30
55604;BME280;41468;48.838;9.330;2023-03-21T12:15:36;98250.06;;;16.69;52.47
55604;BME280;41468;48.838;9.330;2023-03-21T12:20:37;98248.31;;;16.48;51.98
55604;BME280;41468;48.838;9.330;2023-03-21T12:23:17;98247.69;;;16.29;52.13
55604;BME280;41468;48.838;9.330;2023-03-21T12:25:55;98245.28;;;16.35;51.44
55604;BME280;41468;48.838;9.330;2023-03-21T12:37:56;98237.22;;;16.10;51.64
55604;BME280;41468;48.838;9.330;2023-03-21T12:45:58;98224.19;;;16.18;52.82
55604;BME280;41468;48.838;9.330;2023-03-21T12:48:40;98228.53;;;16.15;53.14
55604;BME280;41468;48.838;9.330;2023-03-21T12:51:12;98220.22;;;16.19;51.78
55604;BME280;41468;48.838;9.330;2023-03-21T12:54:04;98223.00;;;16.19;52.95
55604;BME280;41468;48.838;9.330;2023-03-21T12:56:38;98222.59;;;16.20;52.39
55604;BME280;41468;48.838;9.330;2023-03-21T12:59:19;98217.13;;;16.13;53.09
55604;BME280;41468;48.838;9.330;2023-03-21T13:01:50;98213.63;;;16.09;52.27
55604;BME280;41468;48.838;9.330;2023-03-21T13:07:14;98216.72;;;16.15;53.26
55604;BME280;41468;48.838;9.330;2023-03-21T13:09:56;98206.94;;;16.10;52.95
55604;BME280;41468;48.838;9.330;2023-03-21T13:15:06;98210.75;;;16.23;53.08
55604;BME280;41468;48.838;9.330;2023-03-21T13:18:04;98206.81;;;16.24;52.51
55604;BME280;41468;48.838;9.330;2023-03-21T13:20:45;98199.41;;;16.18;52.99
55604;BME280;41468;48.838;9.330;2023-03-21T13:23:12;98199.25;;;16.32;53.08
55604;BME280;41468;48.838;9.330;2023-03-21T13:25:45;98188.56;;;16.38;52.95
55604;BME280;41468;48.838;9.330;2023-03-21T13:28:34;98194.78;;;16.45;54.67
55604;BME280;41468;48.838;9.330;2023-03-21T13:31:21;98202.28;;;16.45;52.54
55604;BME280;41468;48.838;9.330;2023-03-21T13:33:52;98189.28;;;16.45;52.37
55604;BME280;41468;48.838;9.330;2023-03-21T13:36:27;98192.09;;;16.38;53.19
55604;BME280;41468;48.838;9.330;2023-03-21T13:39:00;98183.50;;;16.32;53.87
55604;BME280;41468;48.838;9.330;2023-03-21T13:41:42;98183.88;;;16.34;54.79
55604;BME280;41468;48.838;9.330;2023-03-21T13:44:39;98180.06;;;16.59;54.45
55604;BME280;41468;48.838;9.330;2023-03-21T13:47:38;98173.34;;;16.64;52.16
55604;BME280;41468;48.838;9.330;2023-03-21T13:55:34;98161.06;;;16.68;51.58
55604;BME280;41468;48.838;9.330;2023-03-21T13:58:21;98170.13;;;16.69;53.24
55604;BME280;41468;48.838;9.330;2023-03-21T14:03:39;98163.22;;;16.53;52.20
55604;BME280;41468;48.838;9.330;2023-03-21T14:06:08;98164.44;;;16.49;52.94
55604;BME280;41468;48.838;9.330;2023-03-21T14:08:38;98157.31;;;16.51;52.30
55604;BME280;41468;48.838;9.330;2023-03-21T14:11:11;98162.13;;;16.44;53.42
55604;BME280;41468;48.838;9.330;2023-03-21T14:13:41;98168.84;;;16.43;54.27
55604;BME280;41468;48.838;9.330;2023-03-21T14:16:17;98166.09;;;16.43;53.60
55604;BME280;41468;48.838;9.330;2023-03-21T14:18:47;98155.88;;;16.40;53.61
55604;BME280;41468;48.838;9.330;2023-03-21T14:21:29;98152.03;;;16.33;54.59
55604;BME280;41468;48.838;9.330;2023-03-21T14:24:00;98149.34;;;16.26;53.63
55604;BME280;41468;48.838;9.330;2023-03-21T14:26:30;98139.88;;;16.27;53.91
55604;BME280;41468;48.838;9.330;2023-03-21T14:28:58;98143.06;;;16.22;53.94
55604;BME280;41468;48.838;9.330;2023-03-21T14:31:27;98139.97;;;16.17;54.14
55604;BME280;41468;48.838;9.330;2023-03-21T14:33:58;98150.25;;;16.12;55.46
55604;BME280;41468;48.838;9.330;2023-03-21T14:36:30;98140.91;;;16.03;55.91
55604;BME280;41468;48.838;9.330;2023-03-21T14:39:12;98137.44;;;15.95;55.28
55604;BME280;41468;48.838;9.330;2023-03-21T14:41:45;98138.19;;;15.96;53.05
55604;BME280;41468;48.838;9.330;2023-03-21T14:46:42;98126.00;;;15.97;54.54
55604;BME280;41468;48.838;9.330;2023-03-21T14:49:20;98131.53;;;15.93;53.84